Time;durP1;ratioP1;P1;durP2;ratioP2;P2;SDS_P1;SDS_P2;PMS_P1;PMS_P2;Temp;Humidity;BMP_temperature;BMP_pressure;BME280_temperature;BME280_humidity;BME280_pressure;Samples;Min_cycle;Max_cycle;Signal;HPM_P1;HPM_P2
2021/12/27 00:02:00;;;;;;;5.60;2.25;;;;;;;;;;5031198;28;20448;-68
2021/12/27 00:04:25;;;;;;;8.25;4.15;;;;;;;;;;5031064;28;20021;-67
2021/12/27 00:06:50;;;;;;;17.42;8.05;;;;;;;;;;5028184;28;20022;-66
2021/12/27 00:09:15;;;;;;;11.57;5.47;;;;;;;;;;5026647;28;20041;-69
2021/12/27 00:11:40;;;;;;;9.10;2.45;;;;;;;;;;5028830;28;20705;-66
2021/12/27 00:14:06;;;;;;;6.60;4.28;;;;;;;;;;5026380;28;20029;-67
2021/12/27 00:16:31;;;;;;;13.05;6.75;;;;;;;;;;5031672;28;20021;-67
2021/12/27 00:18:56;;;;;;;8.43;4.00;;;;;;;;;;5030941;28;20526;-66
2021/12/27 00:21:21;;;;;;;13.57;7.20;;;;;;;;;;5027282;28;20025;-66
2021/12/27 00:23:47;;;;;;;10.82;4.78;;;;;;;;;;5028819;28;20036;-66
2021/12/27 00:26:12;;;;;;;10.32;3.35;;;;;;;;;;5028502;28;20052;-67
2021/12/27 00:28:37;;;;;;;10.77;5.43;;;;;;;;;;5028355;28;20091;-67
2021/12/27 00:31:03;;;;;;;8.27;3.95;;;;;;;;;;5030177;28;20030;-67
2021/12/27 00:33:28;;;;;;;15.00;6.15;;;;;;;;;;5027519;28;20107;-67
2021/12/27 00:35:53;;;;;;;13.50;6.90;;;;;;;;;;5032112;28;20078;-66
2021/12/27 00:38:18;;;;;;;5.82;3.47;;;;;;;;;;5033445;28;20013;-68
2021/12/27 00:40:43;;;;;;;9.23;3.95;;;;;;;;;;5033829;28;20038;-67
2021/12/27 00:43:09;;;;;;;8.23;3.80;;;;;;;;;;5034289;28;20024;-67
2021/12/27 00:45:34;;;;;;;10.40;4.20;;;;;;;;;;5028985;28;20092;-66
2021/12/27 00:47:59;;;;;;;12.50;4.85;;;;;;;;;;5029528;28;20045;-66
2021/12/27 00:50:25;;;;;;;11.27;4.60;;;;;;;;;;5031737;28;20060;-68
2021/12/27 00:52:50;;;;;;;4.55;2.42;;;;;;;;;;5032680;28;20069;-68
2021/12/27 00:55:16;;;;;;;10.73;6.00;;;;;;;;;;5032636;28;20432;-67
2021/12/27 00:57:41;;;;;;;9.43;4.68;;;;;;;;;;5033193;28;20049;-67
2021/12/27 01:00:08;;;;;;;13.13;5.93;;;;;;;;;;5030192;28;20023;-66
2021/12/27 01:02:33;;;;;;;14.02;6.80;;;;;;;;;;5029454;28;20025;-67
2021/12/27 01:04:58;;;;;;;15.30;4.82;;;;;;;;;;5032517;28;20087;-66
2021/12/27 01:07:24;;;;;;;10.85;5.15;;;;;;;;;;5031179;28;20117;-66
2021/12/27 01:12:46;;;;;;;11.18;4.78;;;;;;;;;;5030337;28;20031;-67
2021/12/27 01:15:45;;;;;;;11.15;5.30;;;;;;;;;;5029772;28;20029;-67
2021/12/27 01:17:57;;;;;;;5.35;3.42;;;;;;;;;;5029926;28;20052;-68
2021/12/27 01:20:23;;;;;;;9.98;5.03;;;;;;;;;;5027829;28;20030;-67
2021/12/27 01:22:49;;;;;;;8.95;4.13;;;;;;;;;;5035494;28;20025;-67
2021/12/27 01:25:14;;;;;;;10.05;4.82;;;;;;;;;;5037466;28;20342;-67
2021/12/27 01:27:41;;;;;;;10.43;3.78;;;;;;;;;;5032587;28;20037;-68
2021/12/27 01:30:07;;;;;;;12.82;5.82;;;;;;;;;;5036670;28;20028;-67
2021/12/27 01:32:38;;;;;;;4.22;2.72;;;;;;;;;;5038643;23;20044;-67
2021/12/27 01:35:03;;;;;;;8.55;4.30;;;;;;;;;;5026828;28;20022;-66
2021/12/27 01:37:29;;;;;;;11.25;5.60;;;;;;;;;;5026600;28;20045;-68
2021/12/27 01:39:54;;;;;;;9.77;4.57;;;;;;;;;;5026473;28;20395;-67
2021/12/27 01:42:19;;;;;;;10.45;5.47;;;;;;;;;;5024815;28;20108;-66
2021/12/27 01:44:45;;;;;;;14.02;7.50;;;;;;;;;;5008738;28;20024;-68
2021/12/27 01:47:11;;;;;;;15.23;8.27;;;;;;;;;;5025398;28;20025;-67
2021/12/27 01:49:37;;;;;;;13.60;6.22;;;;;;;;;;5024524;28;20021;-67
2021/12/27 01:52:02;;;;;;;12.73;5.70;;;;;;;;;;5024503;28;20029;-66
2021/12/27 01:54:27;;;;;;;15.48;7.03;;;;;;;;;;5025229;28;20022;-67
2021/12/27 01:56:53;;;;;;;15.73;7.38;;;;;;;;;;5029276;28;20097;-66
2021/12/27 01:59:18;;;;;;;14.85;7.78;;;;;;;;;;5024208;28;20055;-67
2021/12/27 02:01:44;;;;;;;4.95;3.17;;;;;;;;;;5028831;28;20035;-66
2021/12/27 02:04:09;;;;;;;12.50;5.65;;;;;;;;;;5023947;28;20047;-67
2021/12/27 02:06:35;;;;;;;12.88;5.32;;;;;;;;;;5027127;28;20079;-68
2021/12/27 02:09:00;;;;;;;16.25;7.95;;;;;;;;;;5024799;28;20406;-67
2021/12/27 02:11:26;;;;;;;14.73;7.75;;;;;;;;;;5022756;28;20022;-67
2021/12/27 02:13:51;;;;;;;11.50;5.75;;;;;;;;;;5023821;28;20112;-68
2021/12/27 02:16:18;;;;;;;11.60;5.43;;;;;;;;;;5025660;28;20523;-67
2021/12/27 02:18:44;;;;;;;10.73;5.53;;;;;;;;;;5025644;28;20021;-67
2021/12/27 02:21:10;;;;;;;17.73;6.72;;;;;;;;;;5027250;28;20516;-68
2021/12/27 02:23:37;;;;;;;18.70;8.52;;;;;;;;;;5024201;28;20029;-67
2021/12/27 02:26:03;;;;;;;14.00;6.97;;;;;;;;;;5025013;28;20014;-66
2021/12/27 02:28:28;;;;;;;17.85;7.72;;;;;;;;;;5023962;28;20386;-68
2021/12/27 02:30:54;;;;;;;16.23;9.10;;;;;;;;;;5021953;28;20411;-66
2021/12/27 02:33:19;;;;;;;12.57;6.00;;;;;;;;;;5024434;28;20033;-66
2021/12/27 02:35:46;;;;;;;14.38;7.40;;;;;;;;;;5021242;28;20034;-68
2021/12/27 02:38:19;;;;;;;16.77;8.68;;;;;;;;;;5026600;28;20044;-67
2021/12/27 02:40:45;;;;;;;13.77;7.35;;;;;;;;;;5026118;28;20021;-66
2021/12/27 02:43:15;;;;;;;6.45;3.30;;;;;;;;;;5023217;28;20028;-66
2021/12/27 02:45:44;;;;;;;12.65;6.70;;;;;;;;;;5024148;28;20021;-67
2021/12/27 02:48:10;;;;;;;8.52;3.70;;;;;;;;;;5024192;28;20045;-67
2021/12/27 02:50:35;;;;;;;13.38;6.57;;;;;;;;;;5031428;28;20465;-68
2021/12/27 02:53:01;;;;;;;14.95;5.55;;;;;;;;;;5027800;28;20041;-66
2021/12/27 02:55:27;;;;;;;15.65;7.70;;;;;;;;;;5023792;28;20112;-67
2021/12/27 02:57:52;;;;;;;8.23;4.60;;;;;;;;;;5024977;28;20029;-66
2021/12/27 03:00:20;;;;;;;6.35;3.55;;;;;;;;;;5023116;28;20026;-68
2021/12/27 03:02:46;;;;;;;17.65;8.95;;;;;;;;;;5023045;28;20017;-68
2021/12/27 03:05:12;;;;;;;14.82;7.65;;;;;;;;;;5023802;28;20114;-67
2021/12/27 03:07:37;;;;;;;17.60;7.20;;;;;;;;;;5023684;28;20712;-69
2021/12/27 03:10:03;;;;;;;14.60;7.53;;;;;;;;;;5022516;28;20036;-66
2021/12/27 03:12:28;;;;;;;18.02;7.15;;;;;;;;;;5022289;28;20017;-67
2021/12/27 03:14:53;;;;;;;17.40;7.55;;;;;;;;;;5023416;28;20017;-68
2021/12/27 03:17:19;;;;;;;19.85;8.57;;;;;;;;;;5026464;28;20025;-66
2021/12/27 03:19:44;;;;;;;18.38;8.50;;;;;;;;;;5024013;28;20537;-68
2021/12/27 03:22:09;;;;;;;19.95;9.23;;;;;;;;;;5026909;28;20029;-66
2021/12/27 03:24:34;;;;;;;19.02;9.50;;;;;;;;;;5023768;28;20022;-67
2021/12/27 03:27:00;;;;;;;16.25;8.05;;;;;;;;;;5026194;28;20053;-67
2021/12/27 03:29:25;;;;;;;17.35;7.65;;;;;;;;;;5009649;28;20025;-67
2021/12/27 03:31:54;;;;;;;17.67;7.80;;;;;;;;;;5023345;28;20466;-67
2021/12/27 03:34:19;;;;;;;17.10;8.52;;;;;;;;;;5024555;28;20485;-67
2021/12/27 03:36:44;;;;;;;19.02;6.95;;;;;;;;;;5022406;28;20045;-68
2021/12/27 03:39:10;;;;;;;15.77;7.47;;;;;;;;;;5023020;28;20505;-67
2021/12/27 03:41:37;;;;;;;7.30;3.30;;;;;;;;;;5029930;28;20087;-67
2021/12/27 03:44:02;;;;;;;17.10;8.30;;;;;;;;;;5023773;28;20100;-67
2021/12/27 03:46:28;;;;;;;15.80;7.07;;;;;;;;;;5024531;28;20561;-66
2021/12/27 03:48:53;;;;;;;15.85;7.22;;;;;;;;;;5023380;28;20057;-67
2021/12/27 03:51:19;;;;;;;14.23;6.85;;;;;;;;;;5021010;28;20095;-66
2021/12/27 03:53:44;;;;;;;21.67;8.82;;;;;;;;;;5023183;28;20021;-67
2021/12/27 03:56:09;;;;;;;14.95;5.90;;;;;;;;;;5022899;28;20103;-67
2021/12/27 03:58:48;;;;;;;17.17;7.30;;;;;;;;;;5021772;28;20028;-67
2021/12/27 04:01:16;;;;;;;13.30;6.60;;;;;;;;;;5021697;28;20488;-68
2021/12/27 04:03:42;;;;;;;15.68;7.22;;;;;;;;;;5005590;28;20524;-66
2021/12/27 04:06:07;;;;;;;9.40;4.82;;;;;;;;;;5021060;28;20048;-68
2021/12/27 04:08:33;;;;;;;9.23;4.40;;;;;;;;;;5021846;28;20049;-66
2021/12/27 04:10:58;;;;;;;13.90;6.20;;;;;;;;;;5022362;28;20049;-68
2021/12/27 04:13:24;;;;;;;16.63;7.90;;;;;;;;;;5023047;28;20108;-66
2021/12/27 04:15:50;;;;;;;15.13;8.30;;;;;;;;;;5024694;28;20021;-66
2021/12/27 04:18:16;;;;;;;19.63;9.15;;;;;;;;;;5022076;28;20102;-67
2021/12/27 04:20:41;;;;;;;18.85;8.45;;;;;;;;;;5025245;28;20321;-66
2021/12/27 04:23:07;;;;;;;12.43;5.68;;;;;;;;;;5021068;28;20505;-67
2021/12/27 04:25:32;;;;;;;15.85;7.90;;;;;;;;;;5024293;28;20108;-67
2021/12/27 04:27:57;;;;;;;16.85;8.52;;;;;;;;;;5021695;28;20038;-67
2021/12/27 04:30:22;;;;;;;15.40;8.07;;;;;;;;;;5021952;28;20040;-68
2021/12/27 04:32:49;;;;;;;15.07;7.93;;;;;;;;;;5023177;28;21607;-67
2021/12/27 04:35:15;;;;;;;16.90;8.65;;;;;;;;;;5021098;28;20592;-66
2021/12/27 04:37:40;;;;;;;17.08;7.40;;;;;;;;;;5023268;28;20017;-67
2021/12/27 04:40:07;;;;;;;16.63;7.60;;;;;;;;;;5023601;28;20063;-69
2021/12/27 04:42:32;;;;;;;14.43;7.35;;;;;;;;;;5024082;28;20093;-68
2021/12/27 04:44:58;;;;;;;9.88;4.43;;;;;;;;;;5021001;28;20121;-66
2021/12/27 04:47:23;;;;;;;12.38;6.05;;;;;;;;;;5024028;28;20104;-69
2021/12/27 04:49:48;;;;;;;17.45;7.95;;;;;;;;;;5021708;28;20108;-67
2021/12/27 04:52:13;;;;;;;18.52;7.78;;;;;;;;;;5023942;28;20068;-66
2021/12/27 04:54:39;;;;;;;13.60;7.13;;;;;;;;;;5024758;28;20385;-67
2021/12/27 04:57:04;;;;;;;11.75;5.85;;;;;;;;;;5025553;28;20028;-67
2021/12/27 04:59:29;;;;;;;17.98;8.02;;;;;;;;;;5024855;28;20049;-69
2021/12/27 05:01:55;;;;;;;16.92;7.55;;;;;;;;;;5024776;28;20152;-66
2021/12/27 05:04:20;;;;;;;16.27;8.02;;;;;;;;;;5025480;28;20614;-68
2021/12/27 05:06:45;;;;;;;12.25;6.13;;;;;;;;;;5026382;28;20092;-68
2021/12/27 05:09:11;;;;;;;17.15;8.23;;;;;;;;;;5026936;28;20111;-67
2021/12/27 05:11:36;;;;;;;20.55;8.20;;;;;;;;;;5025277;28;20593;-69
2021/12/27 05:14:01;;;;;;;14.43;7.03;;;;;;;;;;5026245;28;20037;-66
2021/12/27 05:16:27;;;;;;;14.70;6.80;;;;;;;;;;5025310;28;20021;-68
2021/12/27 05:18:52;;;;;;;15.23;7.82;;;;;;;;;;5025912;28;20025;-67
2021/12/27 05:21:17;;;;;;;12.93;5.28;;;;;;;;;;5023020;28;20025;-69
2021/12/27 05:23:42;;;;;;;17.85;8.32;;;;;;;;;;5025982;28;20124;-67
2021/12/27 05:26:08;;;;;;;13.73;6.55;;;;;;;;;;5028907;28;20112;-66
2021/12/27 05:28:33;;;;;;;14.10;6.88;;;;;;;;;;5026076;28;20389;-69
2021/12/27 05:30:58;;;;;;;13.35;7.05;;;;;;;;;;5025635;28;20032;-69
2021/12/27 05:33:23;;;;;;;10.73;5.70;;;;;;;;;;5026641;28;20108;-67
2021/12/27 05:35:48;;;;;;;13.75;7.28;;;;;;;;;;5029454;28;20029;-66
2021/12/27 05:38:14;;;;;;;10.50;5.03;;;;;;;;;;5024182;28;20382;-67
2021/12/27 05:40:39;;;;;;;12.48;5.55;;;;;;;;;;5025375;28;20049;-68
2021/12/27 05:43:06;;;;;;;19.92;6.90;;;;;;;;;;5025482;28;20049;-68
2021/12/27 05:45:31;;;;;;;13.55;7.43;;;;;;;;;;5025388;28;20116;-67
2021/12/27 05:47:57;;;;;;;14.88;7.88;;;;;;;;;;5024539;28;20601;-66
2021/12/27 05:50:22;;;;;;;14.52;6.72;;;;;;;;;;5022209;28;20038;-67
2021/12/27 05:52:47;;;;;;;10.52;5.38;;;;;;;;;;5030223;28;20017;-66
2021/12/27 05:55:12;;;;;;;12.75;7.13;;;;;;;;;;5029933;28;20031;-67
2021/12/27 05:57:38;;;;;;;10.63;5.00;;;;;;;;;;5028088;28;20473;-69
2021/12/27 06:00:04;;;;;;;18.83;2.90;;;;;;;;;;5024680;28;20406;-69
2021/12/27 06:02:30;;;;;;;16.92;8.32;;;;;;;;;;5026360;28;20036;-69
2021/12/27 06:04:55;;;;;;;16.58;7.90;;;;;;;;;;5008572;28;20033;-68
2021/12/27 06:07:20;;;;;;;14.40;7.05;;;;;;;;;;5024525;28;20448;-68
2021/12/27 06:09:45;;;;;;;16.00;8.02;;;;;;;;;;5023110;28;20028;-69
2021/12/27 06:12:10;;;;;;;13.90;5.70;;;;;;;;;;5023647;28;20036;-67
2021/12/27 06:14:36;;;;;;;13.05;6.70;;;;;;;;;;5023338;28;20036;-66
2021/12/27 06:17:01;;;;;;;18.20;7.65;;;;;;;;;;5024886;28;20022;-67
2021/12/27 06:19:26;;;;;;;14.68;7.88;;;;;;;;;;5023427;28;20021;-67
2021/12/27 06:21:54;;;;;;;16.10;7.63;;;;;;;;;;5023516;28;20021;-68
2021/12/27 06:24:20;;;;;;;17.02;7.35;;;;;;;;;;5024712;28;20478;-68
2021/12/27 06:26:45;;;;;;;14.32;6.35;;;;;;;;;;5027314;28;20040;-66
2021/12/27 06:29:10;;;;;;;10.50;5.97;;;;;;;;;;5024634;28;20022;-67
2021/12/27 06:31:35;;;;;;;12.88;6.47;;;;;;;;;;5025531;28;20024;-66
2021/12/27 06:34:01;;;;;;;16.05;7.63;;;;;;;;;;5030686;28;20552;-66
2021/12/27 06:36:26;;;;;;;13.40;6.80;;;;;;;;;;5025294;28;20115;-66
2021/12/27 06:38:51;;;;;;;14.57;5.65;;;;;;;;;;5007038;28;20018;-68
2021/12/27 06:41:16;;;;;;;15.35;6.32;;;;;;;;;;5024312;28;20013;-68
2021/12/27 06:43:42;;;;;;;14.73;6.85;;;;;;;;;;5027269;28;20030;-67
2021/12/27 06:46:07;;;;;;;12.82;5.88;;;;;;;;;;5022796;28;20025;-68
2021/12/27 06:48:32;;;;;;;14.43;6.28;;;;;;;;;;5023429;28;20021;-67
2021/12/27 06:50:57;;;;;;;13.63;6.43;;;;;;;;;;5005360;28;20152;-67
2021/12/27 06:53:23;;;;;;;8.57;4.47;;;;;;;;;;5024100;28;20037;-67
2021/12/27 06:55:48;;;;;;;14.25;6.43;;;;;;;;;;5026044;28;20052;-67
2021/12/27 06:58:14;;;;;;;13.75;6.70;;;;;;;;;;5026771;28;20025;-67
2021/12/27 07:00:40;;;;;;;14.77;7.20;;;;;;;;;;5024789;28;20018;-67
2021/12/27 07:03:05;;;;;;;14.27;6.80;;;;;;;;;;5023815;28;20030;-67
2021/12/27 07:05:30;;;;;;;9.52;5.20;;;;;;;;;;5025541;28;20378;-67
2021/12/27 07:07:55;;;;;;;12.82;5.63;;;;;;;;;;5025084;28;20029;-67
2021/12/27 07:10:22;;;;;;;11.43;5.22;;;;;;;;;;5022847;28;20649;-67
2021/12/27 07:12:47;;;;;;;14.73;5.22;;;;;;;;;;5021359;28;20421;-67
2021/12/27 07:15:13;;;;;;;15.45;7.95;;;;;;;;;;5024184;28;20025;-67
2021/12/27 07:17:38;;;;;;;12.98;5.55;;;;;;;;;;5023723;28;20774;-67
2021/12/27 07:20:04;;;;;;;17.25;7.55;;;;;;;;;;5021968;28;20036;-67
2021/12/27 07:22:29;;;;;;;13.48;7.15;;;;;;;;;;5022848;28;20014;-67
2021/12/27 07:24:54;;;;;;;14.15;6.28;;;;;;;;;;5004929;28;20500;-68
2021/12/27 07:27:19;;;;;;;12.35;6.32;;;;;;;;;;5025447;28;20021;-66
2021/12/27 07:29:45;;;;;;;13.85;7.60;;;;;;;;;;5023625;28;20028;-67
2021/12/27 07:32:10;;;;;;;12.85;7.10;;;;;;;;;;5045772;23;20057;-68
2021/12/27 07:34:35;;;;;;;15.55;7.47;;;;;;;;;;5001081;28;20029;-68
2021/12/27 07:37:00;;;;;;;15.13;7.55;;;;;;;;;;5002161;28;20045;-68
2021/12/27 07:39:26;;;;;;;18.05;8.50;;;;;;;;;;5004988;28;20509;-68
2021/12/27 07:41:51;;;;;;;14.95;7.10;;;;;;;;;;4988447;28;20044;-68
2021/12/27 07:44:17;;;;;;;15.60;7.30;;;;;;;;;;5001879;28;20280;-68
2021/12/27 07:46:43;;;;;;;19.33;6.65;;;;;;;;;;5001363;28;20425;-68
2021/12/27 07:49:08;;;;;;;14.82;7.57;;;;;;;;;;4999879;28;20022;-68
2021/12/27 07:51:34;;;;;;;15.48;7.65;;;;;;;;;;5001004;28;20034;-68
2021/12/27 07:53:59;;;;;;;16.40;7.88;;;;;;;;;;5001034;28;20075;-68
2021/12/27 07:56:24;;;;;;;15.70;7.90;;;;;;;;;;5001931;28;20049;-68
2021/12/27 07:58:49;;;;;;;14.15;7.55;;;;;;;;;;4999371;28;20398;-68
2021/12/27 08:01:14;;;;;;;17.20;8.10;;;;;;;;;;5000310;28;20032;-68
2021/12/27 08:03:40;;;;;;;18.83;8.75;;;;;;;;;;5001523;28;20030;-68
2021/12/27 08:06:05;;;;;;;17.67;7.25;;;;;;;;;;5006684;28;20076;-68
2021/12/27 08:08:30;;;;;;;14.63;8.07;;;;;;;;;;5001500;28;20459;-68
2021/12/27 08:10:55;;;;;;;17.95;8.50;;;;;;;;;;5002482;28;20024;-68
2021/12/27 08:13:21;;;;;;;20.17;8.68;;;;;;;;;;4998693;28;20052;-68
2021/12/27 08:15:46;;;;;;;13.07;6.82;;;;;;;;;;5002100;28;20467;-68
2021/12/27 08:18:11;;;;;;;13.20;6.38;;;;;;;;;;5001284;28;20387;-67
2021/12/27 08:20:37;;;;;;;12.43;7.13;;;;;;;;;;4999845;28;20030;-67
2021/12/27 08:23:02;;;;;;;13.00;6.88;;;;;;;;;;5000234;28;20971;-68
2021/12/27 08:25:27;;;;;;;15.82;6.55;;;;;;;;;;5000467;28;20616;-68
2021/12/27 08:27:52;;;;;;;16.13;6.90;;;;;;;;;;5004677;28;20471;-67
2021/12/27 08:30:18;;;;;;;17.52;8.70;;;;;;;;;;5001173;28;20080;-67
2021/12/27 08:32:45;;;;;;;13.57;5.47;;;;;;;;;;5000066;28;20033;-68
2021/12/27 08:35:11;;;;;;;16.38;7.97;;;;;;;;;;5002011;28;20053;-67
2021/12/27 08:37:36;;;;;;;13.48;5.03;;;;;;;;;;4999885;28;20438;-68
2021/12/27 08:40:03;;;;;;;14.35;8.07;;;;;;;;;;5003590;28;20470;-68
2021/12/27 08:42:28;;;;;;;6.70;3.70;;;;;;;;;;4997612;28;20121;-67
2021/12/27 08:44:54;;;;;;;13.98;7.28;;;;;;;;;;4999418;28;20113;-67
2021/12/27 08:47:19;;;;;;;17.17;7.88;;;;;;;;;;4997830;28;20022;-68
2021/12/27 08:49:45;;;;;;;9.05;4.43;;;;;;;;;;5001956;28;20038;-68
2021/12/27 08:52:10;;;;;;;9.93;5.38;;;;;;;;;;5000551;28;20033;-68
2021/12/27 08:54:35;;;;;;;15.90;7.68;;;;;;;;;;5000587;28;20041;-68
2021/12/27 08:57:03;;;;;;;9.25;4.65;;;;;;;;;;5000408;28;20032;-68
2021/12/27 08:59:28;;;;;;;14.75;5.22;;;;;;;;;;4997565;28;20112;-68
2021/12/27 09:01:53;;;;;;;9.65;3.88;;;;;;;;;;5004551;28;21527;-73
2021/12/27 09:04:18;;;;;;;14.43;7.50;;;;;;;;;;5000447;28;20022;-73
2021/12/27 09:06:44;;;;;;;17.42;7.70;;;;;;;;;;5000694;28;20104;-73
2021/12/27 09:09:09;;;;;;;11.68;5.30;;;;;;;;;;5004690;28;20025;-73
2021/12/27 09:11:34;;;;;;;13.80;5.90;;;;;;;;;;4998856;28;20037;-74
2021/12/27 09:13:59;;;;;;;14.40;7.55;;;;;;;;;;5004414;28;20276;-73
2021/12/27 09:16:25;;;;;;;18.13;5.78;;;;;;;;;;5007387;28;20471;-73
2021/12/27 09:18:50;;;;;;;17.35;7.60;;;;;;;;;;5001373;28;20161;-73
2021/12/27 09:21:15;;;;;;;15.30;7.13;;;;;;;;;;4998956;28;20481;-68
2021/12/27 09:23:40;;;;;;;19.92;6.07;;;;;;;;;;4992907;28;20262;-68
2021/12/27 09:26:06;;;;;;;15.68;7.00;;;;;;;;;;4999911;28;20015;-68
2021/12/27 09:28:31;;;;;;;14.23;6.88;;;;;;;;;;5003751;28;20022;-68
2021/12/27 09:30:56;;;;;;;9.35;5.18;;;;;;;;;;5004185;28;20032;-68
2021/12/27 09:33:22;;;;;;;15.05;7.00;;;;;;;;;;5006890;28;20026;-69
2021/12/27 09:35:47;;;;;;;10.25;4.75;;;;;;;;;;5007849;28;20022;-69
2021/12/27 09:38:13;;;;;;;15.43;6.55;;;;;;;;;;5006496;28;20359;-70
2021/12/27 09:40:38;;;;;;;18.23;7.03;;;;;;;;;;5000440;28;20156;-70
2021/12/27 09:43:03;;;;;;;19.50;7.55;;;;;;;;;;5012388;28;20398;-69
2021/12/27 09:45:28;;;;;;;17.90;6.63;;;;;;;;;;5009856;28;20072;-69
2021/12/27 09:47:54;;;;;;;14.52;5.03;;;;;;;;;;4997058;28;20046;-69
2021/12/27 09:50:42;;;;;;;16.02;7.03;;;;;;;;;;5009998;28;20025;-69
2021/12/27 09:53:08;;;;;;;13.00;5.78;;;;;;;;;;5000594;28;20100;-69
2021/12/27 09:55:33;;;;;;;14.20;6.30;;;;;;;;;;5011806;28;20422;-69
2021/12/27 09:57:59;;;;;;;14.43;7.38;;;;;;;;;;5013408;28;20026;-69
2021/12/27 10:00:25;;;;;;;9.18;3.70;;;;;;;;;;5013171;28;20010;-70
2021/12/27 10:02:52;;;;;;;8.60;4.15;;;;;;;;;;5011303;28;20025;-70
2021/12/27 10:05:20;;;;;;;10.00;4.05;;;;;;;;;;5012866;28;20028;-70
2021/12/27 10:07:45;;;;;;;11.18;4.90;;;;;;;;;;5011284;28;20460;-70
2021/12/27 10:10:10;;;;;;;11.55;5.75;;;;;;;;;;5006101;28;20118;-69
2021/12/27 10:12:37;;;;;;;17.27;4.28;;;;;;;;;;4998991;28;20026;-70
2021/12/27 10:15:04;;;;;;;13.27;6.15;;;;;;;;;;5012808;28;20437;-70
2021/12/27 10:17:30;;;;;;;7.57;3.47;;;;;;;;;;5011875;28;20052;-70
2021/12/27 10:19:56;;;;;;;8.10;3.75;;;;;;;;;;5012532;28;20057;-70
2021/12/27 10:22:23;;;;;;;12.50;6.07;;;;;;;;;;5010877;28;20053;-70
2021/12/27 10:24:50;;;;;;;11.93;5.57;;;;;;;;;;5012480;28;20083;-70
2021/12/27 10:27:17;;;;;;;17.33;5.38;;;;;;;;;;5023367;28;20209;-70
2021/12/27 10:29:42;;;;;;;11.32;5.32;;;;;;;;;;5015027;28;20034;-69
2021/12/27 10:32:10;;;;;;;6.20;2.80;;;;;;;;;;5009932;28;20080;-69
2021/12/27 10:34:43;;;;;;;12.30;5.40;;;;;;;;;;5009169;28;20057;-69
2021/12/27 10:37:09;;;;;;;8.73;4.70;;;;;;;;;;5007709;28;20075;-69
2021/12/27 10:39:43;;;;;;;6.55;2.83;;;;;;;;;;5010000;28;20697;-69
2021/12/27 10:42:08;;;;;;;6.70;3.53;;;;;;;;;;5009909;28;20120;-69
2021/12/27 10:44:34;;;;;;;5.22;2.40;;;;;;;;;;5011776;28;20034;-70
2021/12/27 10:47:00;;;;;;;6.28;3.65;;;;;;;;;;5011577;28;20041;-70
2021/12/27 10:49:43;;;;;;;8.53;4.17;;;;;;;;;;4997284;28;20387;-71
2021/12/27 10:52:08;;;;;;;6.50;3.75;;;;;;;;;;5011662;28;20269;-70
2021/12/27 10:54:35;;;;;;;6.50;3.30;;;;;;;;;;5011004;28;20470;-70
2021/12/27 10:57:02;;;;;;;6.97;3.78;;;;;;;;;;5012157;28;20030;-71
2021/12/27 10:59:28;;;;;;;4.43;3.22;;;;;;;;;;5010196;28;20018;-70
2021/12/27 11:01:53;;;;;;;4.30;2.30;;;;;;;;;;4994149;28;20022;-69
2021/12/27 11:04:18;;;;;;;6.50;2.85;;;;;;;;;;5005727;28;20501;-70
2021/12/27 11:06:44;;;;;;;4.00;2.38;;;;;;;;;;5010755;28;20029;-69
2021/12/27 11:09:09;;;;;;;7.15;3.58;;;;;;;;;;5009395;28;20160;-67
2021/12/27 11:11:35;;;;;;;3.90;2.25;;;;;;;;;;5008465;28;20076;-70
2021/12/27 11:14:00;;;;;;;3.92;2.35;;;;;;;;;;5011563;28;20017;-70
2021/12/27 11:16:27;;;;;;;5.05;2.45;;;;;;;;;;5013793;28;20025;-70
2021/12/27 11:18:53;;;;;;;6.75;3.10;;;;;;;;;;5008891;28;20358;-70
2021/12/27 11:21:21;;;;;;;3.67;2.42;;;;;;;;;;5010705;28;20490;-70
2021/12/27 11:23:47;;;;;;;5.75;2.85;;;;;;;;;;5010850;28;20080;-70
2021/12/27 11:26:13;;;;;;;4.90;2.90;;;;;;;;;;5011730;28;20017;-70
2021/12/27 11:28:40;;;;;;;5.25;3.00;;;;;;;;;;5010542;28;20014;-72
2021/12/27 11:31:06;;;;;;;5.20;2.90;;;;;;;;;;5009378;28;20014;-72
2021/12/27 11:33:51;;;;;;;6.45;3.42;;;;;;;;;;5010394;28;20478;-71
2021/12/27 11:36:16;;;;;;;6.07;2.13;;;;;;;;;;5011376;28;20470;-71
2021/12/27 11:38:42;;;;;;;6.35;3.28;;;;;;;;;;5010390;28;20097;-69
2021/12/27 11:41:23;;;;;;;3.80;2.45;;;;;;;;;;5007603;28;20045;-69
2021/12/27 11:43:57;;;;;;;2.53;1.83;;;;;;;;;;4997883;28;20032;-69
2021/12/27 11:46:26;;;;;;;3.17;1.90;;;;;;;;;;5008939;28;20119;-69
2021/12/27 11:48:53;;;;;;;3.80;1.27;;;;;;;;;;5010828;28;20165;-69
2021/12/27 11:51:28;;;;;;;2.67;1.95;;;;;;;;;;5010108;28;20037;-70
2021/12/27 11:53:55;;;;;;;7.28;3.17;;;;;;;;;;5006127;28;20741;-70
2021/12/27 11:56:38;;;;;;;3.53;1.88;;;;;;;;;;5008333;28;20029;-70
2021/12/27 11:59:22;;;;;;;9.27;4.25;;;;;;;;;;4995872;28;20020;-70
2021/12/27 12:01:52;;;;;;;6.00;3.30;;;;;;;;;;5009690;28;20374;-70
2021/12/27 12:04:35;;;;;;;6.27;3.83;;;;;;;;;;5005027;28;20029;-70
2021/12/27 12:07:01;;;;;;;7.63;4.30;;;;;;;;;;5009137;28;20264;-70
2021/12/27 12:09:26;;;;;;;6.15;3.50;;;;;;;;;;4993279;28;20026;-70
2021/12/27 12:12:02;;;;;;;5.40;2.72;;;;;;;;;;5009209;28;20025;-71
2021/12/27 12:14:29;;;;;;;6.63;3.53;;;;;;;;;;5010424;28;20094;-70
2021/12/27 12:16:54;;;;;;;5.53;2.67;;;;;;;;;;5011297;28;20018;-70
2021/12/27 12:19:34;;;;;;;5.55;2.90;;;;;;;;;;5011182;28;20033;-70
2021/12/27 12:22:00;;;;;;;4.20;1.70;;;;;;;;;;4985411;28;20108;-70
2021/12/27 12:24:25;;;;;;;5.95;2.92;;;;;;;;;;5007697;28;20114;-70
2021/12/27 12:26:52;;;;;;;3.05;2.20;;;;;;;;;;5010390;28;20042;-70
2021/12/27 12:29:17;;;;;;;5.47;2.83;;;;;;;;;;5011869;28;20060;-70
2021/12/27 12:31:43;;;;;;;4.68;2.15;;;;;;;;;;5010518;28;20026;-70
2021/12/27 12:34:09;;;;;;;4.72;1.95;;;;;;;;;;4998812;28;20113;-70
2021/12/27 12:36:48;;;;;;;6.30;3.75;;;;;;;;;;5000769;28;20031;-70
2021/12/27 12:39:13;;;;;;;4.30;2.63;;;;;;;;;;5004646;28;20041;-70
2021/12/27 12:41:40;;;;;;;3.83;2.03;;;;;;;;;;4999164;28;20018;-70
2021/12/27 12:44:05;;;;;;;4.35;2.35;;;;;;;;;;4990939;28;20041;-70
2021/12/27 12:46:38;;;;;;;3.35;1.75;;;;;;;;;;4999012;28;20030;-70
2021/12/27 12:49:06;;;;;;;2.17;1.60;;;;;;;;;;5007684;28;20036;-70
2021/12/27 12:51:36;;;;;;;8.32;3.47;;;;;;;;;;5008813;28;20018;-70
2021/12/27 12:54:02;;;;;;;3.45;1.85;;;;;;;;;;5010385;28;20604;-69
2021/12/27 12:56:29;;;;;;;3.72;1.88;;;;;;;;;;5010577;28;20467;-70
2021/12/27 12:58:54;;;;;;;4.72;2.58;;;;;;;;;;5009814;28;20383;-68
2021/12/27 13:01:19;;;;;;;3.73;2.20;;;;;;;;;;5010278;28;20024;-68
2021/12/27 13:03:44;;;;;;;2.00;0.97;;;;;;;;;;5009281;28;20276;-68
2021/12/27 13:06:09;;;;;;;3.20;2.00;;;;;;;;;;5010206;28;20666;-68
2021/12/27 13:08:35;;;;;;;3.25;2.00;;;;;;;;;;4996821;28;20112;-68
2021/12/27 13:11:03;;;;;;;1.30;0.87;;;;;;;;;;4990109;28;20018;-69
2021/12/27 13:13:29;;;;;;;2.13;1.08;;;;;;;;;;4990696;28;20253;-69
2021/12/27 13:15:56;;;;;;;2.28;1.00;;;;;;;;;;4992354;28;20025;-69
2021/12/27 13:18:22;;;;;;;3.78;1.77;;;;;;;;;;5011073;28;20075;-68
2021/12/27 13:20:49;;;;;;;3.78;2.17;;;;;;;;;;5013135;28;20451;-68
2021/12/27 13:23:18;;;;;;;3.67;1.13;;;;;;;;;;5013960;28;20021;-68
2021/12/27 13:25:45;;;;;;;4.95;2.08;;;;;;;;;;5013418;28;20467;-69
2021/12/27 13:28:13;;;;;;;1.77;1.15;;;;;;;;;;5004150;28;20088;-69
2021/12/27 13:30:47;;;;;;;2.35;1.75;;;;;;;;;;4995308;28;20026;-69
2021/12/27 13:33:12;;;;;;;5.45;2.65;;;;;;;;;;5066480;22;20076;-65
2021/12/27 13:35:40;;;;;;;3.70;1.33;;;;;;;;;;5013838;28;20482;-66
2021/12/27 13:38:12;;;;;;;4.88;1.95;;;;;;;;;;5013390;28;20452;-66
2021/12/27 13:40:42;;;;;;;4.32;2.10;;;;;;;;;;5012989;28;20462;-65
2021/12/27 13:43:07;;;;;;;3.65;1.45;;;;;;;;;;5013313;28;20458;-65
2021/12/27 13:45:41;;;;;;;3.88;1.60;;;;;;;;;;5015004;28;20053;-65
2021/12/27 13:48:07;;;;;;;4.20;2.17;;;;;;;;;;5015901;28;20018;-65
2021/12/27 13:50:32;;;;;;;2.90;1.02;;;;;;;;;;5013207;28;20490;-65
2021/12/27 13:52:59;;;;;;;2.33;1.30;;;;;;;;;;5012258;28;20061;-65
2021/12/27 13:55:28;;;;;;;3.35;2.03;;;;;;;;;;5013354;28;20363;-65
2021/12/27 13:57:54;;;;;;;3.65;1.67;;;;;;;;;;5012298;28;20097;-65
2021/12/27 14:00:29;;;;;;;3.13;1.73;;;;;;;;;;5013083;28;20471;-65
2021/12/27 14:02:55;;;;;;;10.27;0.70;;;;;;;;;;5012486;28;20100;-65
2021/12/27 14:05:27;;;;;;;3.33;1.45;;;;;;;;;;5020803;28;20049;-65
2021/12/27 14:07:53;;;;;;;2.90;1.85;;;;;;;;;;5011984;28;20030;-65
2021/12/27 14:10:19;;;;;;;4.95;2.20;;;;;;;;;;5019462;28;20026;-65
2021/12/27 14:12:54;;;;;;;8.77;2.90;;;;;;;;;;5012808;28;20018;-66
2021/12/27 14:15:25;;;;;;;2.17;1.35;;;;;;;;;;5012677;28;20210;-66
2021/12/27 14:17:52;;;;;;;3.13;1.90;;;;;;;;;;4997748;28;20041;-66
2021/12/27 14:20:18;;;;;;;0.90;0.88;;;;;;;;;;5010775;28;20180;-66
2021/12/27 14:22:44;;;;;;;3.17;1.52;;;;;;;;;;5009072;28;20022;-66
2021/12/27 14:25:10;;;;;;;4.75;2.13;;;;;;;;;;5009310;28;20049;-67
2021/12/27 14:27:41;;;;;;;4.93;2.03;;;;;;;;;;5007240;28;20528;-66
2021/12/27 14:30:23;;;;;;;6.57;3.08;;;;;;;;;;5003949;28;20033;-66
2021/12/27 14:32:59;;;;;;;6.50;3.10;;;;;;;;;;5017231;28;20092;-66
2021/12/27 14:35:25;;;;;;;7.38;3.15;;;;;;;;;;5014330;28;20033;-66